sensor_id;sensor_type;location;lat;lon;timestamp;P1;durP1;ratioP1;P2;durP2;ratioP2
34896;SDS011;43407;51.828;-2.298;2023-06-10T00:00:11;12.05;;;6.38;;
34896;SDS011;43407;51.828;-2.298;2023-06-10T00:02:39;11.77;;;6.68;;
34896;SDS011;43407;51.828;-2.298;2023-06-10T00:05:05;13.00;;;6.57;;
34896;SDS011;43407;51.828;-2.298;2023-06-10T00:07:32;15.93;;;7.82;;
34896;SDS011;43407;51.828;-2.298;2023-06-10T00:09:58;15.15;;;7.93;;
34896;SDS011;43407;51.828;-2.298;2023-06-10T00:12:24;13.77;;;6.78;;
34896;SDS011;43407;51.828;-2.298;2023-06-10T00:14:50;12.98;;;7.65;;
34896;SDS011;43407;51.828;-2.298;2023-06-10T00:17:16;12.77;;;6.78;;
34896;SDS011;43407;51.828;-2.298;2023-06-10T00:19:42;16.05;;;7.38;;
34896;SDS011;43407;51.828;-2.298;2023-06-10T00:22:08;14.18;;;7.03;;
34896;SDS011;43407;51.828;-2.298;2023-06-10T00:24:37;15.95;;;7.93;;
34896;SDS011;43407;51.828;-2.298;2023-06-10T00:27:03;11.20;;;6.78;;
34896;SDS011;43407;51.828;-2.298;2023-06-10T00:29:28;19.30;;;7.60;;
34896;SDS011;43407;51.828;-2.298;2023-06-10T00:31:54;17.52;;;8.93;;
34896;SDS011;43407;51.828;-2.298;2023-06-10T00:34:23;14.07;;;7.82;;
34896;SDS011;43407;51.828;-2.298;2023-06-10T00:36:48;14.48;;;7.88;;
34896;SDS011;43407;51.828;-2.298;2023-06-10T00:39:14;15.40;;;7.70;;
34896;SDS011;43407;51.828;-2.298;2023-06-10T00:41:40;17.15;;;8.32;;
34896;SDS011;43407;51.828;-2.298;2023-06-10T00:44:05;13.88;;;7.70;;
34896;SDS011;43407;51.828;-2.298;2023-06-10T00:46:31;16.50;;;9.15;;
34896;SDS011;43407;51.828;-2.298;2023-06-10T00:48:58;18.65;;;8.65;;
34896;SDS011;43407;51.828;-2.298;2023-06-10T00:51:25;12.32;;;7.78;;
34896;SDS011;43407;51.828;-2.298;2023-06-10T00:53:51;16.52;;;8.73;;
34896;SDS011;43407;51.828;-2.298;2023-06-10T00:56:16;17.52;;;8.77;;
34896;SDS011;43407;51.828;-2.298;2023-06-10T00:58:42;16.13;;;8.52;;
34896;SDS011;43407;51.828;-2.298;2023-06-10T01:01:08;16.35;;;8.32;;
34896;SDS011;43407;51.828;-2.298;2023-06-10T01:03:36;17.02;;;8.50;;
34896;SDS011;43407;51.828;-2.298;2023-06-10T01:09:21;16.30;;;9.15;;
34896;SDS011;43407;51.828;-2.298;2023-06-10T01:11:57;15.10;;;9.00;;
34896;SDS011;43407;51.828;-2.298;2023-06-10T01:14:26;17.88;;;10.10;;
34896;SDS011;43407;51.828;-2.298;2023-06-10T01:16:51;15.88;;;8.73;;
34896;SDS011;43407;51.828;-2.298;2023-06-10T01:19:18;13.73;;;8.25;;
34896;SDS011;43407;51.828;-2.298;2023-06-10T01:21:44;14.90;;;9.27;;
34896;SDS011;43407;51.828;-2.298;2023-06-10T01:24:14;15.52;;;9.23;;
34896;SDS011;43407;51.828;-2.298;2023-06-10T01:26:43;17.27;;;9.95;;
34896;SDS011;43407;51.828;-2.298;2023-06-10T01:29:14;13.88;;;8.02;;
34896;SDS011;43407;51.828;-2.298;2023-06-10T01:34:24;15.70;;;9.80;;
34896;SDS011;43407;51.828;-2.298;2023-06-10T01:36:51;17.90;;;9.95;;
34896;SDS011;43407;51.828;-2.298;2023-06-10T01:39:19;17.13;;;10.52;;
34896;SDS011;43407;51.828;-2.298;2023-06-10T01:41:47;21.35;;;11.32;;
34896;SDS011;43407;51.828;-2.298;2023-06-10T01:44:17;16.38;;;10.23;;
34896;SDS011;43407;51.828;-2.298;2023-06-10T01:46:43;21.85;;;11.93;;
34896;SDS011;43407;51.828;-2.298;2023-06-10T01:49:09;14.93;;;9.00;;
34896;SDS011;43407;51.828;-2.298;2023-06-10T01:51:34;22.60;;;10.80;;
34896;SDS011;43407;51.828;-2.298;2023-06-10T01:54:01;21.70;;;11.52;;
34896;SDS011;43407;51.828;-2.298;2023-06-10T01:56:26;18.67;;;11.18;;
34896;SDS011;43407;51.828;-2.298;2023-06-10T01:58:52;18.42;;;10.52;;
34896;SDS011;43407;51.828;-2.298;2023-06-10T02:01:20;17.10;;;11.30;;
34896;SDS011;43407;51.828;-2.298;2023-06-10T02:03:45;23.15;;;12.32;;
34896;SDS011;43407;51.828;-2.298;2023-06-10T02:06:10;20.52;;;10.82;;
34896;SDS011;43407;51.828;-2.298;2023-06-10T02:08:36;18.30;;;10.80;;
34896;SDS011;43407;51.828;-2.298;2023-06-10T02:11:01;18.45;;;12.05;;
34896;SDS011;43407;51.828;-2.298;2023-06-10T02:13:27;17.45;;;11.55;;
34896;SDS011;43407;51.828;-2.298;2023-06-10T02:15:52;20.30;;;11.75;;
34896;SDS011;43407;51.828;-2.298;2023-06-10T02:18:19;23.17;;;13.10;;
34896;SDS011;43407;51.828;-2.298;2023-06-10T02:20:45;20.38;;;11.95;;
34896;SDS011;43407;51.828;-2.298;2023-06-10T02:23:11;19.40;;;11.27;;
34896;SDS011;43407;51.828;-2.298;2023-06-10T02:25:37;16.58;;;10.07;;
34896;SDS011;43407;51.828;-2.298;2023-06-10T02:28:02;14.95;;;10.18;;
34896;SDS011;43407;51.828;-2.298;2023-06-10T02:30:28;15.13;;;10.07;;
34896;SDS011;43407;51.828;-2.298;2023-06-10T02:32:54;16.83;;;10.18;;
34896;SDS011;43407;51.828;-2.298;2023-06-10T02:35:21;15.07;;;9.90;;
34896;SDS011;43407;51.828;-2.298;2023-06-10T02:37:47;18.38;;;11.07;;
34896;SDS011;43407;51.828;-2.298;2023-06-10T02:40:13;15.40;;;9.85;;
34896;SDS011;43407;51.828;-2.298;2023-06-10T02:42:38;21.95;;;11.32;;
34896;SDS011;43407;51.828;-2.298;2023-06-10T02:45:04;16.35;;;10.93;;
34896;SDS011;43407;51.828;-2.298;2023-06-10T02:47:30;18.58;;;11.93;;
34896;SDS011;43407;51.828;-2.298;2023-06-10T02:49:55;20.17;;;11.38;;
34896;SDS011;43407;51.828;-2.298;2023-06-10T02:52:21;18.50;;;10.52;;
34896;SDS011;43407;51.828;-2.298;2023-06-10T02:54:46;18.42;;;10.27;;
34896;SDS011;43407;51.828;-2.298;2023-06-10T02:57:12;18.25;;;11.52;;
34896;SDS011;43407;51.828;-2.298;2023-06-10T02:59:39;18.80;;;10.65;;
34896;SDS011;43407;51.828;-2.298;2023-06-10T03:02:05;22.52;;;11.77;;
34896;SDS011;43407;51.828;-2.298;2023-06-10T03:04:31;20.20;;;11.10;;
34896;SDS011;43407;51.828;-2.298;2023-06-10T03:06:56;24.30;;;12.80;;
34896;SDS011;43407;51.828;-2.298;2023-06-10T03:09:22;18.92;;;11.75;;
34896;SDS011;43407;51.828;-2.298;2023-06-10T03:11:47;18.20;;;11.90;;
34896;SDS011;43407;51.828;-2.298;2023-06-10T03:14:13;19.73;;;10.25;;
34896;SDS011;43407;51.828;-2.298;2023-06-10T03:16:38;23.73;;;12.88;;
34896;SDS011;43407;51.828;-2.298;2023-06-10T03:19:06;23.10;;;11.65;;
34896;SDS011;43407;51.828;-2.298;2023-06-10T03:21:33;18.67;;;11.70;;
34896;SDS011;43407;51.828;-2.298;2023-06-10T03:23:59;18.55;;;10.63;;
34896;SDS011;43407;51.828;-2.298;2023-06-10T03:26:25;16.92;;;10.30;;
34896;SDS011;43407;51.828;-2.298;2023-06-10T03:28:52;23.73;;;12.77;;
34896;SDS011;43407;51.828;-2.298;2023-06-10T03:31:18;16.35;;;11.20;;
34896;SDS011;43407;51.828;-2.298;2023-06-10T03:33:43;25.80;;;13.40;;
34896;SDS011;43407;51.828;-2.298;2023-06-10T03:36:09;21.75;;;13.02;;
34896;SDS011;43407;51.828;-2.298;2023-06-10T03:38:35;22.15;;;12.07;;
34896;SDS011;43407;51.828;-2.298;2023-06-10T03:41:01;19.63;;;12.02;;
34896;SDS011;43407;51.828;-2.298;2023-06-10T03:43:27;18.58;;;12.70;;
34896;SDS011;43407;51.828;-2.298;2023-06-10T03:45:52;20.00;;;12.00;;
34896;SDS011;43407;51.828;-2.298;2023-06-10T03:48:18;19.45;;;11.13;;
34896;SDS011;43407;51.828;-2.298;2023-06-10T03:50:43;17.60;;;12.05;;
34896;SDS011;43407;51.828;-2.298;2023-06-10T03:53:09;17.90;;;12.07;;
34896;SDS011;43407;51.828;-2.298;2023-06-10T03:55:35;27.55;;;15.27;;
34896;SDS011;43407;51.828;-2.298;2023-06-10T03:58:01;28.75;;;14.30;;
34896;SDS011;43407;51.828;-2.298;2023-06-10T04:00:27;20.92;;;14.02;;
34896;SDS011;43407;51.828;-2.298;2023-06-10T04:02:53;25.90;;;14.38;;
34896;SDS011;43407;51.828;-2.298;2023-06-10T04:05:23;23.33;;;12.65;;
34896;SDS011;43407;51.828;-2.298;2023-06-10T04:07:48;20.42;;;13.65;;
34896;SDS011;43407;51.828;-2.298;2023-06-10T04:10:15;19.58;;;12.15;;
34896;SDS011;43407;51.828;-2.298;2023-06-10T04:12:41;18.38;;;11.23;;
34896;SDS011;43407;51.828;-2.298;2023-06-10T04:15:07;14.73;;;10.07;;
34896;SDS011;43407;51.828;-2.298;2023-06-10T04:17:33;19.58;;;11.98;;
34896;SDS011;43407;51.828;-2.298;2023-06-10T04:19:58;20.30;;;11.98;;
34896;SDS011;43407;51.828;-2.298;2023-06-10T04:22:25;18.85;;;12.55;;
34896;SDS011;43407;51.828;-2.298;2023-06-10T04:24:50;20.45;;;11.32;;
34896;SDS011;43407;51.828;-2.298;2023-06-10T04:27:16;16.45;;;10.95;;
34896;SDS011;43407;51.828;-2.298;2023-06-10T04:29:42;19.75;;;10.32;;
34896;SDS011;43407;51.828;-2.298;2023-06-10T04:32:07;15.85;;;9.98;;
34896;SDS011;43407;51.828;-2.298;2023-06-10T04:34:33;18.05;;;10.35;;
34896;SDS011;43407;51.828;-2.298;2023-06-10T04:36:59;20.38;;;11.25;;
34896;SDS011;43407;51.828;-2.298;2023-06-10T04:39:25;28.88;;;12.63;;
34896;SDS011;43407;51.828;-2.298;2023-06-10T04:41:50;20.35;;;11.27;;
34896;SDS011;43407;51.828;-2.298;2023-06-10T04:44:16;21.60;;;10.85;;
34896;SDS011;43407;51.828;-2.298;2023-06-10T04:46:42;20.92;;;10.55;;
34896;SDS011;43407;51.828;-2.298;2023-06-10T04:49:07;19.67;;;10.40;;
34896;SDS011;43407;51.828;-2.298;2023-06-10T04:51:33;18.75;;;10.27;;
34896;SDS011;43407;51.828;-2.298;2023-06-10T04:53:59;18.85;;;10.98;;
34896;SDS011;43407;51.828;-2.298;2023-06-10T04:56:28;19.50;;;11.27;;
34896;SDS011;43407;51.828;-2.298;2023-06-10T04:58:55;21.48;;;10.60;;
34896;SDS011;43407;51.828;-2.298;2023-06-10T05:01:21;21.00;;;11.50;;
34896;SDS011;43407;51.828;-2.298;2023-06-10T05:03:46;26.67;;;11.40;;
34896;SDS011;43407;51.828;-2.298;2023-06-10T05:06:12;19.15;;;9.82;;
34896;SDS011;43407;51.828;-2.298;2023-06-10T05:08:37;17.85;;;10.60;;
34896;SDS011;43407;51.828;-2.298;2023-06-10T05:11:03;18.70;;;9.88;;
34896;SDS011;43407;51.828;-2.298;2023-06-10T05:13:28;17.30;;;10.23;;
34896;SDS011;43407;51.828;-2.298;2023-06-10T05:15:54;17.85;;;9.40;;
34896;SDS011;43407;51.828;-2.298;2023-06-10T05:18:20;21.75;;;9.50;;
34896;SDS011;43407;51.828;-2.298;2023-06-10T05:20:46;19.65;;;9.45;;
34896;SDS011;43407;51.828;-2.298;2023-06-10T05:23:11;20.63;;;9.80;;
34896;SDS011;43407;51.828;-2.298;2023-06-10T05:25:37;18.40;;;9.52;;
34896;SDS011;43407;51.828;-2.298;2023-06-10T05:28:03;16.85;;;9.05;;
34896;SDS011;43407;51.828;-2.298;2023-06-10T05:30:28;19.15;;;9.43;;
34896;SDS011;43407;51.828;-2.298;2023-06-10T05:32:54;18.63;;;10.45;;
34896;SDS011;43407;51.828;-2.298;2023-06-10T05:35:21;22.38;;;10.50;;
34896;SDS011;43407;51.828;-2.298;2023-06-10T05:37:46;21.55;;;10.32;;
34896;SDS011;43407;51.828;-2.298;2023-06-10T05:40:12;21.92;;;10.25;;
34896;SDS011;43407;51.828;-2.298;2023-06-10T05:42:38;15.75;;;9.90;;
34896;SDS011;43407;51.828;-2.298;2023-06-10T05:45:03;17.70;;;9.02;;
34896;SDS011;43407;51.828;-2.298;2023-06-10T05:47:31;19.38;;;9.15;;
34896;SDS011;43407;51.828;-2.298;2023-06-10T05:49:56;15.25;;;8.68;;
34896;SDS011;43407;51.828;-2.298;2023-06-10T05:52:22;17.15;;;9.55;;
34896;SDS011;43407;51.828;-2.298;2023-06-10T05:54:48;15.57;;;9.65;;
34896;SDS011;43407;51.828;-2.298;2023-06-10T05:57:14;17.00;;;8.80;;
34896;SDS011;43407;51.828;-2.298;2023-06-10T05:59:40;14.02;;;8.20;;
34896;SDS011;43407;51.828;-2.298;2023-06-10T06:02:06;13.68;;;8.38;;
34896;SDS011;43407;51.828;-2.298;2023-06-10T06:04:31;15.73;;;8.88;;
34896;SDS011;43407;51.828;-2.298;2023-06-10T06:06:57;21.65;;;10.52;;
34896;SDS011;43407;51.828;-2.298;2023-06-10T06:09:22;14.40;;;8.40;;
34896;SDS011;43407;51.828;-2.298;2023-06-10T06:11:48;20.17;;;7.93;;
34896;SDS011;43407;51.828;-2.298;2023-06-10T06:14:13;15.35;;;7.97;;
34896;SDS011;43407;51.828;-2.298;2023-06-10T06:16:39;14.40;;;7.80;;
34896;SDS011;43407;51.828;-2.298;2023-06-10T06:19:05;14.88;;;7.50;;
34896;SDS011;43407;51.828;-2.298;2023-06-10T06:21:31;13.13;;;7.80;;
34896;SDS011;43407;51.828;-2.298;2023-06-10T06:23:56;14.75;;;7.72;;
34896;SDS011;43407;51.828;-2.298;2023-06-10T06:26:22;18.00;;;8.85;;
34896;SDS011;43407;51.828;-2.298;2023-06-10T06:28:48;15.00;;;7.63;;
34896;SDS011;43407;51.828;-2.298;2023-06-10T06:31:13;12.85;;;7.18;;
34896;SDS011;43407;51.828;-2.298;2023-06-10T06:33:39;14.52;;;7.57;;
34896;SDS011;43407;51.828;-2.298;2023-06-10T06:36:05;14.90;;;7.57;;
34896;SDS011;43407;51.828;-2.298;2023-06-10T06:38:30;14.05;;;6.95;;
34896;SDS011;43407;51.828;-2.298;2023-06-10T06:40:56;10.80;;;6.70;;
34896;SDS011;43407;51.828;-2.298;2023-06-10T06:43:21;12.10;;;7.15;;
34896;SDS011;43407;51.828;-2.298;2023-06-10T06:45:47;11.40;;;6.93;;
34896;SDS011;43407;51.828;-2.298;2023-06-10T06:48:12;13.73;;;6.70;;
34896;SDS011;43407;51.828;-2.298;2023-06-10T06:50:38;14.63;;;7.20;;
34896;SDS011;43407;51.828;-2.298;2023-06-10T06:53:04;12.20;;;7.18;;
34896;SDS011;43407;51.828;-2.298;2023-06-10T06:55:29;18.95;;;8.88;;
34896;SDS011;43407;51.828;-2.298;2023-06-10T06:57:55;16.23;;;7.85;;
34896;SDS011;43407;51.828;-2.298;2023-06-10T07:00:20;15.07;;;7.95;;
34896;SDS011;43407;51.828;-2.298;2023-06-10T07:02:46;12.52;;;7.20;;
34896;SDS011;43407;51.828;-2.298;2023-06-10T07:05:12;14.13;;;6.55;;
34896;SDS011;43407;51.828;-2.298;2023-06-10T07:07:37;14.68;;;6.68;;
34896;SDS011;43407;51.828;-2.298;2023-06-10T07:10:03;16.85;;;7.43;;
34896;SDS011;43407;51.828;-2.298;2023-06-10T07:12:29;15.23;;;6.63;;
34896;SDS011;43407;51.828;-2.298;2023-06-10T07:14:54;13.27;;;6.03;;
34896;SDS011;43407;51.828;-2.298;2023-06-10T07:17:20;14.88;;;7.72;;
34896;SDS011;43407;51.828;-2.298;2023-06-10T07:19:45;14.40;;;6.90;;
34896;SDS011;43407;51.828;-2.298;2023-06-10T07:22:11;15.77;;;7.80;;
34896;SDS011;43407;51.828;-2.298;2023-06-10T07:24:36;14.02;;;7.78;;
34896;SDS011;43407;51.828;-2.298;2023-06-10T07:27:02;12.27;;;6.90;;
34896;SDS011;43407;51.828;-2.298;2023-06-10T07:29:28;13.55;;;7.78;;
34896;SDS011;43407;51.828;-2.298;2023-06-10T07:31:53;9.75;;;6.47;;
34896;SDS011;43407;51.828;-2.298;2023-06-10T07:34:19;10.57;;;6.35;;
34896;SDS011;43407;51.828;-2.298;2023-06-10T07:36:44;12.95;;;6.07;;
34896;SDS011;43407;51.828;-2.298;2023-06-10T07:39:10;12.75;;;5.97;;
34896;SDS011;43407;51.828;-2.298;2023-06-10T07:41:35;11.23;;;6.40;;
34896;SDS011;43407;51.828;-2.298;2023-06-10T07:44:01;14.23;;;7.03;;
34896;SDS011;43407;51.828;-2.298;2023-06-10T07:46:27;13.75;;;6.60;;
34896;SDS011;43407;51.828;-2.298;2023-06-10T07:48:53;9.18;;;5.60;;
34896;SDS011;43407;51.828;-2.298;2023-06-10T07:51:20;14.15;;;7.28;;
34896;SDS011;43407;51.828;-2.298;2023-06-10T07:53:45;11.80;;;6.45;;
34896;SDS011;43407;51.828;-2.298;2023-06-10T07:56:11;10.70;;;6.50;;
34896;SDS011;43407;51.828;-2.298;2023-06-10T07:58:37;11.43;;;6.43;;
34896;SDS011;43407;51.828;-2.298;2023-06-10T08:01:02;14.57;;;7.22;;
34896;SDS011;43407;51.828;-2.298;2023-06-10T08:03:27;10.55;;;6.32;;
34896;SDS011;43407;51.828;-2.298;2023-06-10T08:05:53;12.30;;;7.57;;
34896;SDS011;43407;51.828;-2.298;2023-06-10T08:08:18;12.13;;;6.88;;
34896;SDS011;43407;51.828;-2.298;2023-06-10T08:10:45;15.80;;;7.07;;
34896;SDS011;43407;51.828;-2.298;2023-06-10T08:13:11;10.40;;;6.03;;
34896;SDS011;43407;51.828;-2.298;2023-06-10T08:15:36;15.93;;;6.93;;
34896;SDS011;43407;51.828;-2.298;2023-06-10T08:18:02;13.52;;;6.40;;
34896;SDS011;43407;51.828;-2.298;2023-06-10T08:20:27;15.93;;;7.35;;
34896;SDS011;43407;51.828;-2.298;2023-06-10T08:22:53;13.77;;;6.65;;
34896;SDS011;43407;51.828;-2.298;2023-06-10T08:25:19;11.10;;;6.22;;
34896;SDS011;43407;51.828;-2.298;2023-06-10T08:27:47;12.30;;;6.47;;
34896;SDS011;43407;51.828;-2.298;2023-06-10T08:30:12;16.42;;;7.47;;
34896;SDS011;43407;51.828;-2.298;2023-06-10T08:32:38;12.02;;;6.70;;
34896;SDS011;43407;51.828;-2.298;2023-06-10T08:35:04;11.85;;;6.53;;
34896;SDS011;43407;51.828;-2.298;2023-06-10T08:37:30;10.68;;;6.00;;
34896;SDS011;43407;51.828;-2.298;2023-06-10T08:39:55;11.15;;;6.00;;
34896;SDS011;43407;51.828;-2.298;2023-06-10T08:44:46;13.07;;;7.15;;
34896;SDS011;43407;51.828;-2.298;2023-06-10T08:47:16;12.15;;;6.22;;
34896;SDS011;43407;51.828;-2.298;2023-06-10T08:49:45;9.48;;;6.70;;
34896;SDS011;43407;51.828;-2.298;2023-06-10T08:52:18;11.27;;;6.75;;
34896;SDS011;43407;51.828;-2.298;2023-06-10T08:55:10;14.00;;;7.15;;
34896;SDS011;43407;51.828;-2.298;2023-06-10T08:57:37;12.73;;;7.50;;
34896;SDS011;43407;51.828;-2.298;2023-06-10T09:00:03;14.77;;;7.82;;
34896;SDS011;43407;51.828;-2.298;2023-06-10T09:02:30;12.25;;;7.43;;
34896;SDS011;43407;51.828;-2.298;2023-06-10T09:04:57;13.95;;;7.20;;
34896;SDS011;43407;51.828;-2.298;2023-06-10T09:07:22;15.20;;;7.57;;
34896;SDS011;43407;51.828;-2.298;2023-06-10T09:09:48;12.00;;;6.60;;
34896;SDS011;43407;51.828;-2.298;2023-06-10T09:12:14;11.38;;;6.78;;
34896;SDS011;43407;51.828;-2.298;2023-06-10T09:14:40;13.38;;;7.80;;
34896;SDS011;43407;51.828;-2.298;2023-06-10T09:17:07;11.00;;;7.00;;
34896;SDS011;43407;51.828;-2.298;2023-06-10T09:19:32;12.10;;;6.28;;
34896;SDS011;43407;51.828;-2.298;2023-06-10T09:21:58;12.40;;;6.78;;
34896;SDS011;43407;51.828;-2.298;2023-06-10T09:24:24;12.20;;;6.95;;
34896;SDS011;43407;51.828;-2.298;2023-06-10T09:26:50;10.63;;;6.13;;
34896;SDS011;43407;51.828;-2.298;2023-06-10T09:29:27;13.93;;;6.80;;
34896;SDS011;43407;51.828;-2.298;2023-06-10T09:31:52;12.07;;;7.13;;
34896;SDS011;43407;51.828;-2.298;2023-06-10T09:34:18;9.63;;;6.22;;
34896;SDS011;43407;51.828;-2.298;2023-06-10T09:36:43;14.77;;;7.90;;
34896;SDS011;43407;51.828;-2.298;2023-06-10T09:39:16;12.07;;;6.88;;
34896;SDS011;43407;51.828;-2.298;2023-06-10T09:41:42;14.52;;;8.00;;
34896;SDS011;43407;51.828;-2.298;2023-06-10T09:44:15;17.98;;;8.27;;
34896;SDS011;43407;51.828;-2.298;2023-06-10T09:46:41;9.67;;;6.90;;
34896;SDS011;43407;51.828;-2.298;2023-06-10T09:49:07;12.48;;;7.13;;
34896;SDS011;43407;51.828;-2.298;2023-06-10T09:51:33;11.50;;;6.70;;
34896;SDS011;43407;51.828;-2.298;2023-06-10T09:53:59;9.57;;;6.20;;
34896;SDS011;43407;51.828;-2.298;2023-06-10T09:56:37;11.95;;;6.80;;
34896;SDS011;43407;51.828;-2.298;2023-06-10T09:59:05;11.40;;;7.20;;
34896;SDS011;43407;51.828;-2.298;2023-06-10T10:01:31;10.93;;;6.72;;
34896;SDS011;43407;51.828;-2.298;2023-06-10T10:03:58;9.85;;;6.70;;
34896;SDS011;43407;51.828;-2.298;2023-06-10T10:06:24;10.35;;;6.57;;
34896;SDS011;43407;51.828;-2.298;2023-06-10T10:08:50;10.63;;;6.68;;
34896;SDS011;43407;51.828;-2.298;2023-06-10T10:11:17;10.85;;;6.80;;
34896;SDS011;43407;51.828;-2.298;2023-06-10T10:13:45;10.07;;;6.13;;
34896;SDS011;43407;51.828;-2.298;2023-06-10T10:16:11;11.25;;;6.68;;
34896;SDS011;43407;51.828;-2.298;2023-06-10T10:18:41;14.07;;;7.10;;
34896;SDS011;43407;51.828;-2.298;2023-06-10T10:21:11;10.57;;;6.30;;
34896;SDS011;43407;51.828;-2.298;2023-06-10T10:23:44;16.95;;;6.40;;
34896;SDS011;43407;51.828;-2.298;2023-06-10T10:26:24;10.90;;;6.97;;
34896;SDS011;43407;51.828;-2.298;2023-06-10T10:28:53;10.43;;;6.45;;
34896;SDS011;43407;51.828;-2.298;2023-06-10T10:31:30;11.60;;;6.10;;
34896;SDS011;43407;51.828;-2.298;2023-06-10T10:33:58;13.43;;;6.97;;
34896;SDS011;43407;51.828;-2.298;2023-06-10T10:36:25;13.45;;;7.18;;
34896;SDS011;43407;51.828;-2.298;2023-06-10T10:38:51;14.88;;;7.13;;
34896;SDS011;43407;51.828;-2.298;2023-06-10T10:41:17;12.07;;;7.07;;
34896;SDS011;43407;51.828;-2.298;2023-06-10T10:43:43;10.82;;;6.82;;
34896;SDS011;43407;51.828;-2.298;2023-06-10T10:46:13;10.95;;;6.57;;
34896;SDS011;43407;51.828;-2.298;2023-06-10T10:48:40;11.38;;;6.90;;
34896;SDS011;43407;51.828;-2.298;2023-06-10T10:51:08;12.85;;;7.15;;
34896;SDS011;43407;51.828;-2.298;2023-06-10T10:53:34;10.32;;;6.57;;
34896;SDS011;43407;51.828;-2.298;2023-06-10T10:56:06;12.00;;;7.20;;
34896;SDS011;43407;51.828;-2.298;2023-06-10T10:59:04;10.52;;;6.47;;
34896;SDS011;43407;51.828;-2.298;2023-06-10T11:01:40;9.27;;;6.22;;
34896;SDS011;43407;51.828;-2.298;2023-06-10T11:04:07;12.88;;;6.18;;
34896;SDS011;43407;51.828;-2.298;2023-06-10T11:06:34;9.75;;;6.60;;
34896;SDS011;43407;51.828;-2.298;2023-06-10T11:09:00;9.05;;;6.20;;
34896;SDS011;43407;51.828;-2.298;2023-06-10T11:11:26;10.30;;;5.80;;
34896;SDS011;43407;51.828;-2.298;2023-06-10T11:14:04;12.18;;;6.82;;
34896;SDS011;43407;51.828;-2.298;2023-06-10T11:16:40;10.07;;;6.47;;
34896;SDS011;43407;51.828;-2.298;2023-06-10T11:19:07;8.52;;;6.38;;
34896;SDS011;43407;51.828;-2.298;2023-06-10T11:21:36;12.98;;;6.60;;
34896;SDS011;43407;51.828;-2.298;2023-06-10T11:24:23;9.57;;;6.45;;
34896;SDS011;43407;51.828;-2.298;2023-06-10T11:26:48;10.68;;;6.05;;
34896;SDS011;43407;51.828;-2.298;2023-06-10T11:29:14;9.48;;;5.75;;
34896;SDS011;43407;51.828;-2.298;2023-06-10T11:31:50;8.38;;;5.70;;
34896;SDS011;43407;51.828;-2.298;2023-06-10T11:34:21;8.65;;;5.50;;
34896;SDS011;43407;51.828;-2.298;2023-06-10T11:36:51;10.00;;;5.90;;
34896;SDS011;43407;51.828;-2.298;2023-06-10T11:39:18;10.35;;;5.57;;
34896;SDS011;43407;51.828;-2.298;2023-06-10T11:41:45;7.88;;;5.55;;
34896;SDS011;43407;51.828;-2.298;2023-06-10T11:44:11;10.93;;;5.80;;
34896;SDS011;43407;51.828;-2.298;2023-06-10T11:46:38;9.20;;;6.07;;
34896;SDS011;43407;51.828;-2.298;2023-06-10T11:49:05;8.63;;;5.75;;
34896;SDS011;43407;51.828;-2.298;2023-06-10T11:51:37;8.70;;;5.75;;
34896;SDS011;43407;51.828;-2.298;2023-06-10T11:54:04;9.52;;;5.78;;
34896;SDS011;43407;51.828;-2.298;2023-06-10T11:56:30;10.93;;;6.20;;
34896;SDS011;43407;51.828;-2.298;2023-06-10T11:58:57;8.93;;;5.70;;
34896;SDS011;43407;51.828;-2.298;2023-06-10T12:01:32;7.90;;;5.40;;
34896;SDS011;43407;51.828;-2.298;2023-06-10T12:04:06;8.63;;;6.03;;
34896;SDS011;43407;51.828;-2.298;2023-06-10T12:06:46;9.80;;;5.70;;
34896;SDS011;43407;51.828;-2.298;2023-06-10T12:09:28;8.18;;;5.68;;
34896;SDS011;43407;51.828;-2.298;2023-06-10T12:11:58;9.93;;;5.80;;
34896;SDS011;43407;51.828;-2.298;2023-06-10T12:20:02;10.25;;;6.07;;
34896;SDS011;43407;51.828;-2.298;2023-06-10T12:22:43;9.48;;;5.90;;
34896;SDS011;43407;51.828;-2.298;2023-06-10T12:25:10;7.82;;;5.40;;
34896;SDS011;43407;51.828;-2.298;2023-06-10T12:27:36;6.45;;;5.22;;
34896;SDS011;43407;51.828;-2.298;2023-06-10T12:30:03;6.65;;;5.07;;
34896;SDS011;43407;51.828;-2.298;2023-06-10T12:32:44;6.75;;;4.40;;
34896;SDS011;43407;51.828;-2.298;2023-06-10T12:35:11;8.60;;;5.80;;
34896;SDS011;43407;51.828;-2.298;2023-06-10T12:37:38;11.23;;;6.30;;
34896;SDS011;43407;51.828;-2.298;2023-06-10T12:40:07;6.20;;;5.45;;
34896;SDS011;43407;51.828;-2.298;2023-06-10T12:42:36;7.22;;;5.00;;
34896;SDS011;43407;51.828;-2.298;2023-06-10T12:45:03;6.53;;;5.15;;
34896;SDS011;43407;51.828;-2.298;2023-06-10T12:47:30;7.75;;;5.40;;
34896;SDS011;43407;51.828;-2.298;2023-06-10T12:50:00;10.68;;;5.53;;
34896;SDS011;43407;51.828;-2.298;2023-06-10T12:52:26;7.72;;;5.45;;
34896;SDS011;43407;51.828;-2.298;2023-06-10T12:54:53;6.63;;;5.45;;
34896;SDS011;43407;51.828;-2.298;2023-06-10T12:57:19;6.63;;;5.13;;
34896;SDS011;43407;51.828;-2.298;2023-06-10T12:59:46;8.50;;;5.38;;
34896;SDS011;43407;51.828;-2.298;2023-06-10T13:02:17;7.07;;;5.95;;
34896;SDS011;43407;51.828;-2.298;2023-06-10T13:04:43;8.90;;;5.88;;
34896;SDS011;43407;51.828;-2.298;2023-06-10T13:07:09;6.57;;;5.38;;
34896;SDS011;43407;51.828;-2.298;2023-06-10T13:09:35;7.65;;;5.28;;
34896;SDS011;43407;51.828;-2.298;2023-06-10T13:12:01;5.30;;;4.70;;
34896;SDS011;43407;51.828;-2.298;2023-06-10T13:14:27;5.70;;;5.05;;
34896;SDS011;43407;51.828;-2.298;2023-06-10T13:16:54;8.73;;;5.18;;
34896;SDS011;43407;51.828;-2.298;2023-06-10T13:19:20;7.28;;;4.63;;
34896;SDS011;43407;51.828;-2.298;2023-06-10T13:21:46;7.95;;;4.60;;
34896;SDS011;43407;51.828;-2.298;2023-06-10T13:24:12;4.88;;;4.20;;
34896;SDS011;43407;51.828;-2.298;2023-06-10T13:26:38;6.90;;;4.55;;
34896;SDS011;43407;51.828;-2.298;2023-06-10T13:29:04;7.15;;;4.65;;
34896;SDS011;43407;51.828;-2.298;2023-06-10T13:31:30;7.43;;;4.63;;
34896;SDS011;43407;51.828;-2.298;2023-06-10T13:33:57;4.70;;;4.30;;
34896;SDS011;43407;51.828;-2.298;2023-06-10T13:36:22;5.40;;;4.55;;
34896;SDS011;43407;51.828;-2.298;2023-06-10T13:38:48;5.50;;;4.68;;
34896;SDS011;43407;51.828;-2.298;2023-06-10T13:41:13;7.18;;;5.05;;
34896;SDS011;43407;51.828;-2.298;2023-06-10T13:43:39;8.35;;;5.30;;
34896;SDS011;43407;51.828;-2.298;2023-06-10T13:46:04;6.32;;;4.72;;
34896;SDS011;43407;51.828;-2.298;2023-06-10T13:48:30;7.65;;;5.63;;
34896;SDS011;43407;51.828;-2.298;2023-06-10T13:50:56;5.50;;;4.65;;
34896;SDS011;43407;51.828;-2.298;2023-06-10T13:53:22;5.47;;;4.95;;
34896;SDS011;43407;51.828;-2.298;2023-06-10T13:55:47;6.38;;;5.40;;
34896;SDS011;43407;51.828;-2.298;2023-06-10T13:58:13;6.65;;;5.13;;
34896;SDS011;43407;51.828;-2.298;2023-06-10T14:00:38;6.38;;;5.03;;
34896;SDS011;43407;51.828;-2.298;2023-06-10T14:03:04;5.00;;;4.38;;
34896;SDS011;43407;51.828;-2.298;2023-06-10T14:05:29;5.18;;;4.68;;
34896;SDS011;43407;51.828;-2.298;2023-06-10T14:07:55;5.65;;;4.20;;
34896;SDS011;43407;51.828;-2.298;2023-06-10T14:10:21;5.90;;;4.35;;
34896;SDS011;43407;51.828;-2.298;2023-06-10T14:12:47;4.60;;;4.20;;
34896;SDS011;43407;51.828;-2.298;2023-06-10T14:15:13;6.15;;;4.45;;
34896;SDS011;43407;51.828;-2.298;2023-06-10T14:17:38;5.82;;;4.63;;
34896;SDS011;43407;51.828;-2.298;2023-06-10T14:20:04;6.75;;;4.45;;
34896;SDS011;43407;51.828;-2.298;2023-06-10T14:22:30;8.07;;;4.70;;
34896;SDS011;43407;51.828;-2.298;2023-06-10T14:24:56;4.95;;;4.45;;
34896;SDS011;43407;51.828;-2.298;2023-06-10T14:27:21;5.93;;;4.40;;
34896;SDS011;43407;51.828;-2.298;2023-06-10T14:29:46;5.10;;;4.60;;
34896;SDS011;43407;51.828;-2.298;2023-06-10T14:32:12;4.80;;;4.30;;